createdAt,value
2018-09-17T00:02:04.686Z,4.20
2018-09-17T00:04:32.748Z,4.03
2018-09-17T00:07:00.864Z,3.70
2018-09-17T00:09:28.992Z,4.07
2018-09-17T00:11:57.145Z,3.50
2018-09-17T00:14:25.236Z,4.13
2018-09-17T00:16:53.300Z,3.20
2018-09-17T00:19:21.388Z,3.17
2018-09-17T00:21:49.469Z,3.20
2018-09-17T00:24:17.581Z,4.00
2018-09-17T00:26:45.641Z,3.70
2018-09-17T00:29:13.713Z,3.50
2018-09-17T00:31:41.777Z,3.77
2018-09-17T00:34:09.860Z,3.10
2018-09-17T00:36:38.023Z,3.30
2018-09-17T00:39:08.776Z,3.40
2018-09-17T00:41:36.852Z,4.50
2018-09-17T00:44:04.960Z,3.80
2018-09-17T00:46:33.130Z,3.70
2018-09-17T00:49:01.304Z,3.30
2018-09-17T00:51:29.404Z,3.37
2018-09-17T00:53:57.573Z,4.63
2018-09-17T00:56:25.693Z,3.73
2018-09-17T00:58:53.784Z,3.57
2018-09-17T01:01:21.852Z,3.57
2018-09-17T01:03:50.030Z,3.13
2018-09-17T01:06:18.108Z,3.67
2018-09-17T01:08:46.208Z,3.13
2018-09-17T01:11:14.511Z,3.10
2018-09-17T01:13:42.749Z,4.47
2018-09-17T01:16:10.784Z,3.17
2018-09-17T01:18:38.872Z,3.00
2018-09-17T01:21:07.192Z,4.53
2018-09-17T01:23:35.273Z,3.77
2018-09-17T01:26:03.473Z,3.30
2018-09-17T01:28:31.546Z,3.13
2018-09-17T01:30:59.640Z,3.00
2018-09-17T01:33:27.828Z,3.67
2018-09-17T01:35:56.020Z,3.60
2018-09-17T01:38:24.101Z,4.27
2018-09-17T01:40:52.260Z,3.07
2018-09-17T01:43:20.338Z,3.60
2018-09-17T01:45:48.484Z,3.53
2018-09-17T01:48:16.532Z,2.90
2018-09-17T01:50:44.709Z,3.13
2018-09-17T01:53:12.756Z,5.17
2018-09-17T01:55:40.805Z,3.10
2018-09-17T01:58:08.897Z,4.40
2018-09-17T02:00:36.990Z,3.17
2018-09-17T02:03:05.072Z,2.93
2018-09-17T02:05:33.214Z,4.10
2018-09-17T02:08:01.318Z,3.57
2018-09-17T02:10:29.388Z,3.47
2018-09-17T02:12:57.469Z,3.33
2018-09-17T02:15:25.562Z,2.73
2018-09-17T02:17:53.748Z,3.00
2018-09-17T02:20:21.788Z,2.77
2018-09-17T02:22:49.901Z,3.43
2018-09-17T02:25:18.095Z,2.83
2018-09-17T02:27:46.163Z,3.60
2018-09-17T02:30:14.249Z,3.77
2018-09-17T02:32:42.310Z,3.13
2018-09-17T02:35:10.367Z,3.60
2018-09-17T02:37:38.424Z,3.27
2018-09-17T02:40:10.981Z,2.90
2018-09-17T02:42:39.077Z,3.33
2018-09-17T02:45:07.148Z,2.70
2018-09-17T02:47:35.209Z,3.43
2018-09-17T02:50:03.351Z,3.23
2018-09-17T02:52:31.405Z,3.00
2018-09-17T02:54:59.467Z,2.73
2018-09-17T02:57:27.529Z,3.20
2018-09-17T02:59:55.733Z,3.70
2018-09-17T03:02:23.793Z,3.00
2018-09-17T03:04:51.941Z,3.43
2018-09-17T03:07:20.041Z,2.90
2018-09-17T03:09:48.120Z,2.63
2018-09-17T03:12:16.220Z,4.03
2018-09-17T03:14:44.276Z,2.67
2018-09-17T03:17:13.584Z,2.97
2018-09-17T03:19:42.616Z,3.20
2018-09-17T03:22:11.401Z,4.10
2018-09-17T03:24:39.733Z,3.17
2018-09-17T03:27:08.248Z,3.33
2018-09-17T03:29:36.460Z,3.27
2018-09-17T03:32:04.680Z,3.17
2018-09-17T03:34:32.868Z,3.57
2018-09-17T03:37:00.967Z,3.20
2018-09-17T03:39:29.101Z,2.63
2018-09-17T03:41:57.258Z,3.03
2018-09-17T03:44:25.446Z,3.00
2018-09-17T03:46:53.524Z,3.03
2018-09-17T03:49:21.721Z,3.07
2018-09-17T03:51:49.805Z,2.90
2018-09-17T03:54:17.892Z,3.13
2018-09-17T03:56:45.977Z,2.97
2018-09-17T03:59:14.115Z,2.80
2018-09-17T04:01:42.124Z,2.60
2018-09-17T04:04:10.243Z,3.90
2018-09-17T04:06:38.321Z,2.77
2018-09-17T04:09:07.612Z,3.47
2018-09-17T04:11:35.711Z,3.47
2018-09-17T04:14:04.891Z,2.87
2018-09-17T04:16:32.991Z,2.93
2018-09-17T04:19:01.040Z,4.10
2018-09-17T04:21:29.215Z,3.60
2018-09-17T04:23:57.289Z,4.33
2018-09-17T04:26:25.376Z,3.03
2018-09-17T04:28:53.488Z,3.27
2018-09-17T04:31:21.715Z,2.67
2018-09-17T04:33:49.764Z,3.57
2018-09-17T04:36:17.837Z,3.40
2018-09-17T04:38:45.974Z,2.90
2018-09-17T04:41:14.060Z,3.00
2018-09-17T04:43:42.146Z,5.43
2018-09-17T04:46:10.224Z,3.63
2018-09-17T04:48:38.412Z,3.27
2018-09-17T04:51:06.592Z,2.87
2018-09-17T04:53:34.649Z,3.03
2018-09-17T04:56:02.724Z,3.80
2018-09-17T04:58:30.840Z,3.73
2018-09-17T05:00:58.936Z,3.63
2018-09-17T05:03:27.148Z,4.47
2018-09-17T05:05:55.237Z,3.20
2018-09-17T05:08:23.301Z,3.00
2018-09-17T05:10:51.373Z,6.40
2018-09-17T05:13:19.585Z,2.73
2018-09-17T05:15:47.692Z,4.67
2018-09-17T05:18:15.835Z,3.90
2018-09-17T05:20:43.995Z,3.53
2018-09-17T05:23:12.057Z,3.93
2018-09-17T05:25:40.156Z,6.20
2018-09-17T05:28:08.297Z,4.07
2018-09-17T05:30:36.340Z,4.37
2018-09-17T05:33:04.484Z,5.50
2018-09-17T05:35:32.746Z,5.93
2018-09-17T05:38:01.022Z,4.53
2018-09-17T05:40:29.114Z,4.73
2018-09-17T05:42:57.365Z,3.40
2018-09-17T05:45:25.473Z,4.83
2018-09-17T05:47:53.577Z,3.97
2018-09-17T05:50:21.641Z,3.87
2018-09-17T05:52:49.855Z,4.57
2018-09-17T05:55:17.944Z,4.33
2018-09-17T05:57:46.031Z,4.63
2018-09-17T06:00:14.120Z,3.67
2018-09-17T06:02:42.242Z,4.80
2018-09-17T06:05:10.309Z,4.13
2018-09-17T06:07:38.412Z,3.10
2018-09-17T06:10:12.040Z,5.07
2018-09-17T06:12:40.116Z,6.63
2018-09-17T06:15:08.331Z,3.10
2018-09-17T06:17:36.563Z,4.07
2018-09-17T06:20:04.608Z,4.97
2018-09-17T06:22:32.681Z,4.33
2018-09-17T06:25:00.825Z,5.17
2018-09-17T06:27:28.941Z,4.70
2018-09-17T06:29:57.217Z,3.23
2018-09-17T06:32:25.288Z,4.93
2018-09-17T06:34:53.364Z,4.50
2018-09-17T06:37:21.456Z,4.60
2018-09-17T06:39:49.512Z,3.10
2018-09-17T06:42:17.604Z,3.77
2018-09-17T06:44:45.722Z,3.80
2018-09-17T06:47:13.948Z,3.40
2018-09-17T06:49:42.009Z,6.47
2018-09-17T06:52:10.142Z,5.33
2018-09-17T06:54:38.281Z,4.80
2018-09-17T06:57:06.361Z,3.77
2018-09-17T06:59:34.467Z,3.83
2018-09-17T07:02:02.816Z,3.30
2018-09-17T07:04:31.046Z,4.63
2018-09-17T07:06:59.180Z,4.77
2018-09-17T07:09:27.284Z,3.80
2018-09-17T07:11:55.411Z,3.67
2018-09-17T07:14:23.584Z,3.40
2018-09-17T07:16:51.723Z,3.00
2018-09-17T07:19:19.761Z,4.90
2018-09-17T07:21:47.984Z,3.70
2018-09-17T07:24:16.052Z,4.33
2018-09-17T07:26:44.119Z,3.47
2018-09-17T07:29:12.214Z,3.67
2018-09-17T07:31:40.281Z,4.27
2018-09-17T07:34:08.365Z,3.20
2018-09-17T07:36:36.609Z,3.70
2018-09-17T07:39:08.317Z,5.80
2018-09-17T07:41:36.492Z,3.57
2018-09-17T07:44:04.633Z,5.50
2018-09-17T07:46:32.737Z,3.17
2018-09-17T07:49:00.839Z,4.20
2018-09-17T07:51:28.980Z,4.47
2018-09-17T07:53:57.095Z,5.63
2018-09-17T07:56:25.192Z,3.00
2018-09-17T07:58:53.376Z,4.33
2018-09-17T08:01:21.377Z,4.70
2018-09-17T08:03:49.460Z,3.43
2018-09-17T08:06:17.955Z,4.17
2018-09-17T08:08:46.048Z,5.53
2018-09-17T08:11:14.134Z,4.27
2018-09-17T08:13:42.214Z,3.27
2018-09-17T08:16:10.284Z,4.53
2018-09-17T08:18:38.428Z,4.37
2018-09-17T08:21:06.588Z,3.30
2018-09-17T08:23:34.707Z,5.03
2018-09-17T08:26:02.928Z,3.67
2018-09-17T08:28:31.061Z,4.40
2018-09-17T08:30:59.160Z,4.70
2018-09-17T08:33:27.364Z,3.63
2018-09-17T08:35:55.481Z,4.30
2018-09-17T08:38:23.557Z,4.03
2018-09-17T08:40:51.661Z,4.97
2018-09-17T08:43:19.796Z,4.57
2018-09-17T08:45:47.900Z,4.20
2018-09-17T08:48:16.040Z,5.50
2018-09-17T08:50:44.166Z,3.93
2018-09-17T08:53:12.274Z,4.53
2018-09-17T08:55:46.428Z,3.37
2018-09-17T08:58:20.125Z,5.37
2018-09-17T09:00:53.574Z,3.53
2018-09-17T09:03:26.713Z,5.00
2018-09-17T09:06:00.274Z,4.77
2018-09-17T09:08:28.518Z,5.00
2018-09-17T09:11:02.153Z,3.60
2018-09-17T09:13:38.825Z,3.73
2018-09-17T09:16:07.917Z,6.97
2018-09-17T09:18:36.116Z,4.17
2018-09-17T09:21:04.180Z,4.33
2018-09-17T09:23:32.324Z,4.17
2018-09-17T09:26:00.457Z,6.70
2018-09-17T09:28:28.640Z,3.90
2018-09-17T09:30:56.895Z,6.40
2018-09-17T09:33:25.034Z,4.73
2018-09-17T09:35:53.117Z,6.57
2018-09-17T09:38:21.257Z,4.27
2018-09-17T09:40:49.323Z,5.17
2018-09-17T09:43:17.436Z,4.77
2018-09-17T09:45:45.503Z,4.30
2018-09-17T09:48:13.580Z,4.33
2018-09-17T09:50:41.667Z,3.63
2018-09-17T09:53:09.954Z,4.90
2018-09-17T09:55:38.054Z,3.70
2018-09-17T09:58:06.448Z,4.27
2018-09-17T10:00:40.008Z,3.27
2018-09-17T10:03:13.453Z,4.10
2018-09-17T10:05:41.548Z,3.73
2018-09-17T10:08:09.651Z,3.60
2018-09-17T10:10:43.144Z,3.83
2018-09-17T10:13:16.575Z,3.27
2018-09-17T10:15:55.166Z,3.07
2018-09-17T10:18:28.877Z,3.20
2018-09-17T10:20:57.081Z,4.83
2018-09-17T10:23:25.215Z,4.13
2018-09-17T10:25:53.480Z,3.90
2018-09-17T10:28:21.976Z,3.67
2018-09-17T10:30:50.044Z,5.17
2018-09-17T10:33:18.247Z,3.97
2018-09-17T10:35:46.320Z,2.20
2018-09-17T10:38:14.425Z,4.33
2018-09-17T10:40:42.504Z,3.80
2018-09-17T10:43:10.568Z,3.87
2018-09-17T10:45:38.670Z,2.87
2018-09-17T10:48:06.736Z,4.07
2018-09-17T10:50:34.905Z,2.97
2018-09-17T10:53:03.390Z,2.77
2018-09-17T10:55:31.491Z,3.80
2018-09-17T10:57:59.592Z,3.33
2018-09-17T11:00:27.706Z,3.87
2018-09-17T11:02:55.796Z,3.27
2018-09-17T11:05:23.876Z,5.43
2018-09-17T11:07:52.024Z,3.13
2018-09-17T11:10:20.103Z,3.60
2018-09-17T11:12:48.169Z,3.47
2018-09-17T11:15:16.252Z,3.83
2018-09-17T11:17:44.435Z,4.03
2018-09-17T11:20:12.554Z,3.87
2018-09-17T11:22:40.618Z,2.53
2018-09-17T11:25:08.844Z,2.43
2018-09-17T11:27:36.907Z,4.97
2018-09-17T11:30:05.159Z,2.40
2018-09-17T11:32:33.280Z,4.80
2018-09-17T11:35:01.388Z,2.83
2018-09-17T11:37:29.571Z,2.80
2018-09-17T11:39:57.692Z,2.43
2018-09-17T11:42:25.816Z,1.90
2018-09-17T11:44:54.944Z,2.73
2018-09-17T11:47:23.029Z,2.97
2018-09-17T11:49:51.131Z,2.20
2018-09-17T11:52:19.216Z,2.80
2018-09-17T11:54:47.315Z,3.07
2018-09-17T11:57:15.383Z,3.13
2018-09-17T11:59:43.468Z,2.20
2018-09-17T12:02:17.230Z,2.60
2018-09-17T12:04:50.784Z,3.43
2018-09-17T12:07:24.325Z,2.30
2018-09-17T12:09:52.432Z,4.67
2018-09-17T12:12:20.563Z,2.67
2018-09-17T12:14:48.703Z,2.20
2018-09-17T12:17:16.789Z,2.57
2018-09-17T12:19:44.869Z,2.43
2018-09-17T12:22:13.004Z,1.90
2018-09-17T12:24:41.231Z,2.73
2018-09-17T12:27:09.378Z,2.17
2018-09-17T12:29:37.513Z,2.10
2018-09-17T12:32:05.582Z,1.97
2018-09-17T12:34:33.773Z,2.80
2018-09-17T12:37:01.927Z,2.40
2018-09-17T12:39:30.067Z,2.10
2018-09-17T12:41:58.366Z,2.73
2018-09-17T12:44:26.564Z,2.17
2018-09-17T12:46:54.880Z,2.33
2018-09-17T12:49:22.944Z,3.57
2018-09-17T12:51:51.047Z,2.37
2018-09-17T12:54:19.232Z,3.00
2018-09-17T12:56:47.303Z,2.73
2018-09-17T12:59:15.380Z,3.97
2018-09-17T13:01:43.459Z,3.30
2018-09-17T13:04:11.527Z,3.37
2018-09-17T13:06:39.612Z,3.27
2018-09-17T13:09:08.601Z,2.43
2018-09-17T13:11:36.672Z,1.73
2018-09-17T13:14:04.740Z,3.40
2018-09-17T13:16:32.898Z,2.57
2018-09-17T13:19:00.988Z,2.93
2018-09-17T13:21:29.103Z,2.53
2018-09-17T13:23:57.204Z,2.10
2018-09-17T13:26:25.354Z,1.90
2018-09-17T13:28:54.528Z,2.87
2018-09-17T13:31:22.628Z,2.33
2018-09-17T13:33:50.676Z,3.50
2018-09-17T13:36:18.770Z,2.33
2018-09-17T13:38:46.859Z,2.87
2018-09-17T13:41:14.930Z,2.37
2018-09-17T13:43:43.030Z,2.13
2018-09-17T13:46:11.158Z,2.10
2018-09-17T13:48:39.200Z,3.30
2018-09-17T13:51:07.299Z,2.07
2018-09-17T13:53:35.613Z,2.03
2018-09-17T13:56:04.300Z,2.10
2018-09-17T13:58:32.463Z,3.13
2018-09-17T14:01:00.555Z,2.10
2018-09-17T14:03:28.625Z,2.50
2018-09-17T14:05:56.704Z,2.20
2018-09-17T14:08:24.804Z,2.67
2018-09-17T14:10:52.865Z,2.03
2018-09-17T14:13:21.024Z,2.80
2018-09-17T14:15:54.542Z,2.00
2018-09-17T14:18:22.585Z,2.07
2018-09-17T14:20:50.652Z,2.00
2018-09-17T14:23:18.751Z,3.63
2018-09-17T14:25:46.834Z,2.90
2018-09-17T14:28:14.932Z,3.00
2018-09-17T14:30:43.008Z,2.47
2018-09-17T14:33:16.672Z,1.97
2018-09-17T14:35:44.791Z,2.60
2018-09-17T14:38:12.904Z,2.60
2018-09-17T14:40:41.196Z,3.13
2018-09-17T14:43:09.254Z,2.30
2018-09-17T14:45:37.734Z,2.30
2018-09-17T14:48:05.805Z,1.70
2018-09-17T14:50:33.946Z,3.63
2018-09-17T14:53:02.066Z,2.40
2018-09-17T14:55:30.196Z,2.30
2018-09-17T14:57:58.379Z,2.53
2018-09-17T15:00:26.454Z,2.27
2018-09-17T15:02:54.565Z,2.73
2018-09-17T15:05:22.796Z,2.37
2018-09-17T15:07:50.858Z,1.87
2018-09-17T15:10:19.030Z,2.23
2018-09-17T15:12:47.114Z,2.47
2018-09-17T15:15:15.274Z,2.50
2018-09-17T15:17:43.294Z,3.27
2018-09-17T15:20:11.436Z,1.87
2018-09-17T15:22:39.526Z,2.23
2018-09-17T15:25:07.657Z,2.67
2018-09-17T15:27:35.768Z,2.57
2018-09-17T15:30:05.274Z,2.23
2018-09-17T15:32:33.418Z,2.10
2018-09-17T15:35:01.631Z,1.80
2018-09-17T15:37:29.758Z,2.17
2018-09-17T15:39:58.144Z,2.10
2018-09-17T15:42:26.655Z,4.03
2018-09-17T15:44:54.750Z,1.83
2018-09-17T15:47:22.909Z,2.00
2018-09-17T15:49:51.034Z,1.70
2018-09-17T15:52:19.267Z,2.37
2018-09-17T15:54:47.215Z,1.63
2018-09-17T15:57:15.360Z,3.00
2018-09-17T15:59:43.508Z,2.33
2018-09-17T16:02:11.601Z,2.00
2018-09-17T16:04:39.704Z,2.23
2018-09-17T16:07:07.757Z,2.13
2018-09-17T16:09:35.940Z,2.27
2018-09-17T16:12:04.112Z,2.97
2018-09-17T16:14:32.223Z,3.53
2018-09-17T16:17:00.294Z,3.27
2018-09-17T16:19:28.501Z,2.43
2018-09-17T16:21:56.669Z,2.53
2018-09-17T16:24:24.821Z,2.37
2018-09-17T16:26:53.029Z,2.60
2018-09-17T16:29:21.185Z,2.07
2018-09-17T16:31:49.265Z,2.13
2018-09-17T16:34:17.467Z,3.37
2018-09-17T16:36:45.528Z,2.40
2018-09-17T16:39:13.581Z,2.60
2018-09-17T16:41:41.665Z,2.00
2018-09-17T16:44:09.743Z,1.90
2018-09-17T16:46:37.821Z,2.00
2018-09-17T16:49:05.905Z,2.30
2018-09-17T16:51:34.030Z,2.60
2018-09-17T16:54:02.126Z,2.27
2018-09-17T16:56:30.209Z,2.10
2018-09-17T16:58:58.317Z,3.37
2018-09-17T17:01:26.769Z,2.23
2018-09-17T17:03:54.862Z,2.13
2018-09-17T17:06:23.158Z,2.07
2018-09-17T17:08:51.239Z,3.03
2018-09-17T17:11:19.407Z,3.33
2018-09-17T17:13:47.613Z,2.30
2018-09-17T17:16:15.765Z,4.00
2018-09-17T17:18:43.862Z,2.10
2018-09-17T17:21:11.971Z,1.93
2018-09-17T17:23:40.044Z,2.00
2018-09-17T17:26:08.096Z,2.93
2018-09-17T17:28:36.193Z,2.40
2018-09-17T17:31:04.377Z,2.90
2018-09-17T17:33:32.501Z,3.20
2018-09-17T17:36:00.676Z,2.60
2018-09-17T17:38:28.820Z,2.93
2018-09-17T17:40:56.928Z,2.57
2018-09-17T17:43:25.094Z,2.57
2018-09-17T17:45:53.207Z,2.63
2018-09-17T17:48:21.244Z,3.83
2018-09-17T17:50:49.343Z,2.80
2018-09-17T17:53:17.441Z,3.87
2018-09-17T17:55:45.860Z,4.00
2018-09-17T17:58:13.968Z,3.20
2018-09-17T18:00:42.046Z,3.83
2018-09-17T18:03:10.140Z,4.50
2018-09-17T18:05:38.217Z,3.23
2018-09-17T18:08:06.293Z,4.60
2018-09-17T18:10:34.369Z,3.40
2018-09-17T18:13:02.516Z,4.47
2018-09-17T18:15:30.529Z,6.53
2018-09-17T18:17:58.822Z,5.60
2018-09-17T18:20:26.948Z,3.87
2018-09-17T18:22:55.017Z,4.27
2018-09-17T18:25:23.104Z,3.23
2018-09-17T18:27:51.193Z,4.30
2018-09-17T18:30:19.312Z,3.93
2018-09-17T18:32:47.490Z,4.57
2018-09-17T18:35:15.513Z,4.13
2018-09-17T18:37:43.595Z,3.63
2018-09-17T18:40:11.700Z,5.03
2018-09-17T18:42:39.899Z,5.03
2018-09-17T18:45:07.998Z,4.20
2018-09-17T18:47:36.076Z,5.30
2018-09-17T18:50:04.140Z,5.10
2018-09-17T18:52:32.231Z,4.67
2018-09-17T18:55:00.341Z,4.33
2018-09-17T18:57:28.633Z,6.67
2018-09-17T18:59:56.781Z,4.60
2018-09-17T19:02:25.857Z,5.10
2018-09-17T19:04:53.991Z,6.03
2018-09-17T19:07:22.068Z,4.40
2018-09-17T19:09:50.968Z,5.90
2018-09-17T19:12:20.103Z,4.83
2018-09-17T19:14:53.619Z,6.07
2018-09-17T19:17:27.146Z,4.63
2018-09-17T19:19:55.306Z,3.87
2018-09-17T19:22:28.952Z,5.10
2018-09-17T19:24:57.072Z,4.57
2018-09-17T19:28:32.384Z,5.70
2018-09-17T19:31:00.440Z,6.47
2018-09-17T19:33:28.514Z,5.03
2018-09-17T19:35:56.689Z,5.67
2018-09-17T19:38:30.178Z,4.70
2018-09-17T19:40:58.268Z,5.53
2018-09-17T19:43:26.377Z,4.73
2018-09-17T19:46:00.026Z,5.77
2018-09-17T19:48:28.102Z,6.03
2018-09-17T19:51:01.760Z,5.20
2018-09-17T19:53:29.912Z,4.10
2018-09-17T19:55:58.131Z,6.00
2018-09-17T19:58:32.028Z,5.10
2018-09-17T20:01:00.139Z,7.03
2018-09-17T20:03:28.220Z,6.03
2018-09-17T20:06:01.769Z,5.57
2018-09-17T20:08:29.940Z,6.07
2018-09-17T20:10:58.114Z,5.73
2018-09-17T20:13:26.228Z,5.40
2018-09-17T20:15:54.280Z,4.47
2018-09-17T20:18:22.362Z,5.90
2018-09-17T20:20:50.431Z,5.03
2018-09-17T20:23:18.501Z,5.97
2018-09-17T20:25:46.572Z,4.70
2018-09-17T20:28:14.667Z,6.00
2018-09-17T20:30:42.757Z,4.77
2018-09-17T20:33:10.841Z,5.63
2018-09-17T20:35:38.946Z,5.57
2018-09-17T20:38:07.009Z,5.00
2018-09-17T20:40:35.081Z,9.87
2018-09-17T20:43:03.197Z,7.73
2018-09-17T20:45:31.313Z,5.90
2018-09-17T20:47:59.420Z,5.30
2018-09-17T20:50:27.525Z,5.60
2018-09-17T20:52:55.600Z,6.30
2018-09-17T20:55:23.754Z,6.53
2018-09-17T20:57:51.764Z,4.97
2018-09-17T21:00:19.860Z,4.87
2018-09-17T21:02:47.941Z,4.90
2018-09-17T21:05:16.074Z,6.77
2018-09-17T21:07:44.149Z,6.73
2018-09-17T21:10:12.235Z,5.97
2018-09-17T21:12:40.481Z,5.93
2018-09-17T21:15:08.503Z,5.80
2018-09-17T21:17:36.580Z,4.77
2018-09-17T21:20:04.656Z,5.97
2018-09-17T21:22:32.731Z,6.43
2018-09-17T21:25:00.900Z,4.57
2018-09-17T21:27:28.938Z,5.53
2018-09-17T21:29:56.995Z,5.73
2018-09-17T21:32:25.104Z,5.87
2018-09-17T21:34:53.492Z,5.30
2018-09-17T21:37:21.662Z,6.00
2018-09-17T21:39:49.647Z,5.93
2018-09-17T21:42:17.709Z,5.77
2018-09-17T21:44:45.800Z,5.70
2018-09-17T21:47:32.454Z,5.00
2018-09-17T21:50:00.682Z,5.60
2018-09-17T21:52:28.823Z,5.90
2018-09-17T21:54:56.859Z,6.37
2018-09-17T21:57:25.101Z,6.33
2018-09-17T21:59:53.166Z,6.93
2018-09-17T22:02:21.295Z,5.17
2018-09-17T22:04:49.487Z,6.93
2018-09-17T22:07:17.552Z,5.17
2018-09-17T22:09:45.613Z,4.90
2018-09-17T22:12:13.701Z,5.20
2018-09-17T22:14:41.796Z,4.47
2018-09-17T22:17:09.877Z,4.73
2018-09-17T22:19:37.924Z,5.30
2018-09-17T22:22:06.168Z,4.87
2018-09-17T22:24:34.313Z,6.07
2018-09-17T22:27:02.436Z,4.63
2018-09-17T22:29:30.509Z,5.10
2018-09-17T22:31:58.703Z,4.73
2018-09-17T22:34:27.716Z,5.33
2018-09-17T22:36:55.828Z,6.97
2018-09-17T22:39:23.924Z,4.80
2018-09-17T22:41:51.994Z,7.57
2018-09-17T22:44:20.085Z,4.93
2018-09-17T22:46:48.212Z,5.00
2018-09-17T22:49:16.324Z,5.17
2018-09-17T22:51:44.418Z,5.07
2018-09-17T22:54:12.485Z,5.47
2018-09-17T22:56:40.623Z,6.10
2018-09-17T22:59:08.712Z,5.53
2018-09-17T23:01:36.768Z,4.63
2018-09-17T23:04:04.836Z,4.43
2018-09-17T23:06:32.984Z,5.00
2018-09-17T23:09:01.232Z,5.13
2018-09-17T23:11:29.319Z,5.20
2018-09-17T23:13:57.468Z,5.43
2018-09-17T23:16:25.546Z,5.70
2018-09-17T23:18:53.631Z,6.00
2018-09-17T23:21:21.701Z,4.93
2018-09-17T23:23:49.797Z,5.13
2018-09-17T23:26:17.883Z,4.67
2018-09-17T23:28:46.052Z,4.63
2018-09-17T23:31:14.139Z,4.57
2018-09-17T23:33:42.279Z,5.87
2018-09-17T23:36:10.336Z,5.37
2018-09-17T23:38:38.404Z,4.80
2018-09-17T23:41:06.480Z,4.20
2018-09-17T23:43:34.556Z,4.80
2018-09-17T23:46:02.652Z,4.43
2018-09-17T23:48:30.748Z,5.70
2018-09-17T23:50:58.840Z,5.13
2018-09-17T23:53:26.924Z,4.97
2018-09-17T23:55:55.008Z,6.50
2018-09-17T23:58:23.122Z,4.53
